Time;durP1;ratioP1;P1;durP2;ratioP2;P2;SDS_P1;SDS_P2;PMS_P1;PMS_P2;Temp;Humidity;BMP_temperature;BMP_pressure;BME280_temperature;BME280_humidity;BME280_pressure;Samples;Min_cycle;Max_cycle;Signal;HPM_P1;HPM_P2
2023/03/06 00:00:29;;;;;;;16.27;9.43;;;;;;;5.18;77.32;99078.31;5137757;27;20142;-80
2023/03/06 00:02:55;;;;;;;18.08;10.25;;;;;;;5.24;77.16;99071.91;5140231;27;20088;-80
2023/03/06 00:05:21;;;;;;;15.20;8.68;;;;;;;5.20;76.87;99070.78;5138789;27;20023;-80
2023/03/06 00:07:46;;;;;;;15.55;9.02;;;;;;;5.28;76.89;99076.81;5137002;27;20425;-80
2023/03/06 00:10:17;;;;;;;20.15;9.65;;;;;;;5.22;77.25;99068.66;5140755;27;20445;-80
2023/03/06 00:12:42;;;;;;;19.10;11.23;;;;;;;5.22;77.35;99067.81;5138183;27;20083;-79
2023/03/06 00:15:09;;;;;;;21.48;11.48;;;;;;;5.25;77.05;99064.59;5140086;27;20030;-79
2023/03/06 00:17:35;;;;;;;21.45;12.65;;;;;;;5.17;78.05;99057.75;5138338;27;20035;-80
2023/03/06 00:20:00;;;;;;;22.77;12.52;;;;;;;5.21;77.68;99067.00;5137446;27;20034;-80
2023/03/06 00:22:25;;;;;;;23.60;11.73;;;;;;;5.19;77.16;99058.31;5137967;27;20429;-79
2023/03/06 00:24:52;;;;;;;22.63;12.70;;;;;;;5.16;77.69;99053.41;5139705;27;20246;-79
2023/03/06 00:27:18;;;;;;;25.27;13.45;;;;;;;5.13;78.07;99045.78;5137089;27;20608;-79
2023/03/06 00:29:43;;;;;;;28.17;15.55;;;;;;;5.21;78.16;99045.38;5139147;27;20064;-79
2023/03/06 00:32:09;;;;;;;25.60;14.07;;;;;;;5.25;77.63;99045.69;5139907;27;20053;-79
2023/03/06 00:34:34;;;;;;;23.70;13.18;;;;;;;5.28;77.13;99038.97;5136199;27;20391;-80
2023/03/06 00:36:59;;;;;;;26.02;14.07;;;;;;;5.28;77.69;99033.56;5138150;27;20023;-79
2023/03/06 00:39:25;;;;;;;22.15;14.05;;;;;;;5.25;77.57;99038.41;5134994;27;20023;-79
2023/03/06 00:41:50;;;;;;;22.73;13.23;;;;;;;5.23;77.70;99029.72;5137578;27;20400;-80
2023/03/06 00:44:15;;;;;;;24.30;15.30;;;;;;;5.19;77.97;99031.28;5137025;27;20031;-79
2023/03/06 00:46:40;;;;;;;24.02;14.15;;;;;;;5.15;78.36;99024.72;5137983;27;20628;-79
2023/03/06 00:49:06;;;;;;;27.38;14.98;;;;;;;5.25;78.05;99018.66;5135825;27;20030;-79
2023/03/06 00:51:31;;;;;;;24.87;13.70;;;;;;;5.31;78.06;99016.88;5135670;27;20097;-79
2023/03/06 00:53:56;;;;;;;22.90;12.87;;;;;;;5.25;77.56;99013.25;5137750;27;20307;-79
2023/03/06 00:56:21;;;;;;;19.05;12.88;;;;;;;5.03;78.52;99008.63;5138540;27;20702;-79
2023/03/06 00:58:47;;;;;;;23.65;12.15;;;;;;;5.04;78.45;99014.84;5138902;27;20084;-79
2023/03/06 01:01:12;;;;;;;24.70;12.93;;;;;;;5.01;78.50;99003.47;5138654;27;20114;-79
2023/03/06 01:03:37;;;;;;;23.83;12.80;;;;;;;4.93;79.05;99009.28;5138198;27;20035;-79
2023/03/06 01:06:03;;;;;;;24.05;15.07;;;;;;;4.98;79.00;99001.25;5138724;27;20054;-80
2023/03/06 01:08:28;;;;;;;22.50;12.10;;;;;;;5.15;78.94;98997.72;5138205;27;20043;-79
2023/03/06 01:10:53;;;;;;;23.08;12.02;;;;;;;5.05;79.24;98997.56;5138517;27;20542;-79
2023/03/06 01:13:18;;;;;;;20.60;11.65;;;;;;;5.07;78.36;98995.41;5138775;27;20489;-79
2023/03/06 01:15:44;;;;;;;20.75;13.23;;;;;;;4.89;78.84;98989.22;5138580;27;20031;-79
2023/03/06 01:18:09;;;;;;;23.13;14.40;;;;;;;5.02;78.77;98990.78;5138497;27;20059;-79
2023/03/06 01:20:34;;;;;;;27.43;14.50;;;;;;;5.17;78.59;98995.56;5137755;27;20031;-80
2023/03/06 01:22:59;;;;;;;26.67;14.35;;;;;;;5.04;78.08;98987.81;5137428;27;20289;-79
2023/03/06 01:25:25;;;;;;;26.20;15.77;;;;;;;4.74;79.68;98987.91;5139057;27;20529;-79
2023/03/06 01:27:51;;;;;;;24.10;14.27;;;;;;;4.96;78.56;98987.19;5137318;27;20322;-80
2023/03/06 01:30:18;;;;;;;25.50;16.58;;;;;;;4.94;78.99;98985.78;5138759;27;20046;-80
2023/03/06 01:32:43;;;;;;;24.75;13.82;;;;;;;5.12;78.25;98982.00;5138232;27;20109;-79
2023/03/06 01:35:10;;;;;;;27.75;15.32;;;;;;;5.16;77.53;98971.50;5138643;27;20122;-78
2023/03/06 01:37:36;;;;;;;21.65;11.27;;;;;;;4.96;77.55;98978.25;5138459;27;20106;-79
2023/03/06 01:40:03;;;;;;;19.15;10.00;;;;;;;4.49;79.29;98975.63;5138381;27;20038;-80
2023/03/06 01:42:28;;;;;;;22.40;11.50;;;;;;;4.67;79.38;98979.16;5137910;27;20066;-79
2023/03/06 01:45:26;;;;;;;18.08;10.20;;;;;;;4.85;78.50;98978.09;5138266;27;20061;-79
2023/03/06 01:47:51;;;;;;;27.15;10.50;;;;;;;4.86;77.77;98973.50;5089361;27;20479;-79
2023/03/06 01:50:17;;;;;;;17.33;9.57;;;;;;;4.99;77.96;98966.94;5139978;27;20103;-80
2023/03/06 01:52:49;;;;;;;15.73;9.02;;;;;;;4.58;77.75;98972.53;5141794;27;20078;-80
2023/03/06 01:55:18;;;;;;;16.42;9.55;;;;;;;4.63;78.86;98967.19;5141245;27;20029;-80
2023/03/06 01:57:47;;;;;;;17.85;9.35;;;;;;;4.86;78.41;98965.41;5140899;27;20051;-80
2023/03/06 02:00:21;;;;;;;16.90;9.27;;;;;;;4.91;77.96;98954.69;5141912;27;20038;-81
2023/03/06 02:02:53;;;;;;;17.70;9.07;;;;;;;4.71;78.19;98958.69;5142604;27;20031;-80
2023/03/06 02:05:19;;;;;;;12.68;7.78;;;;;;;4.77;78.42;98960.41;5140682;27;20038;-80
2023/03/06 02:07:45;;;;;;;13.57;7.22;;;;;;;4.74;77.49;98957.41;5141229;27;20031;-80
2023/03/06 02:10:12;;;;;;;12.50;7.90;;;;;;;4.65;78.48;98952.41;5141208;27;20076;-79
2023/03/06 02:12:42;;;;;;;12.52;8.48;;;;;;;4.79;77.55;98952.06;5140978;27;20464;-79
2023/03/06 02:15:09;;;;;;;18.58;10.73;;;;;;;4.82;78.06;98948.06;5142126;27;20018;-80
2023/03/06 02:17:35;;;;;;;17.85;11.27;;;;;;;4.86;77.77;98938.41;5140044;27;20023;-79
2023/03/06 02:20:17;;;;;;;17.65;9.15;;;;;;;4.85;77.71;98934.03;5140630;27;20111;-80
2023/03/06 02:22:49;;;;;;;14.70;9.55;;;;;;;4.85;77.79;98936.75;5140641;27;20121;-80
2023/03/06 02:25:25;;;;;;;16.30;10.00;;;;;;;4.86;77.81;98925.69;5139694;27;20034;-79
2023/03/06 02:27:50;;;;;;;21.17;11.05;;;;;;;4.94;77.59;98921.78;5140459;27;20288;-80
2023/03/06 02:30:16;;;;;;;19.08;10.90;;;;;;;4.85;77.18;98924.06;5142131;27;20470;-79
2023/03/06 02:32:42;;;;;;;19.70;9.93;;;;;;;4.88;77.58;98920.06;5140634;27;20038;-79
2023/03/06 02:35:18;;;;;;;20.97;13.43;;;;;;;4.82;77.51;98923.75;5140991;27;20083;-79
2023/03/06 02:37:44;;;;;;;18.60;9.73;;;;;;;4.70;77.28;98924.63;5139462;27;20278;-79
2023/03/06 02:40:13;;;;;;;19.85;12.68;;;;;;;4.82;77.47;98923.75;5141211;27;20023;-80
2023/03/06 02:42:45;;;;;;;19.88;9.38;;;;;;;4.85;77.85;98909.75;5141067;27;20093;-79
2023/03/06 02:45:11;;;;;;;15.82;8.68;;;;;;;4.97;76.96;98910.47;5141563;27;20037;-79
2023/03/06 02:47:37;;;;;;;18.20;10.18;;;;;;;4.85;76.99;98907.88;5141553;27;20123;-79
2023/03/06 02:50:02;;;;;;;16.40;10.43;;;;;;;4.75;77.21;98896.91;5141304;27;20255;-79
2023/03/06 02:52:27;;;;;;;26.05;11.93;;;;;;;4.86;77.20;98903.28;5140977;27;20031;-80
2023/03/06 02:54:53;;;;;;;17.20;10.65;;;;;;;4.89;77.56;98903.59;5140330;27;20030;-79
2023/03/06 02:57:18;;;;;;;21.95;10.00;;;;;;;4.52;77.44;98898.72;5139824;27;20047;-79
2023/03/06 02:59:43;;;;;;;19.42;10.05;;;;;;;4.65;77.92;98892.16;5140098;27;20023;-79
2023/03/06 03:02:09;;;;;;;18.50;10.30;;;;;;;4.83;77.80;98895.66;5140948;27;20057;-79
2023/03/06 03:04:34;;;;;;;19.50;12.48;;;;;;;4.81;77.03;98895.09;5138974;27;20313;-80
2023/03/06 03:06:59;;;;;;;20.23;10.75;;;;;;;4.57;77.63;98895.28;5140826;27;20027;-79
2023/03/06 03:09:24;;;;;;;18.80;12.03;;;;;;;4.83;78.08;98884.84;5140847;27;20042;-79
2023/03/06 03:11:50;;;;;;;20.52;11.27;;;;;;;4.89;77.43;98886.56;5139891;27;20306;-79
2023/03/06 03:14:15;;;;;;;20.97;11.53;;;;;;;4.84;76.97;98891.91;5140887;27;20038;-79
2023/03/06 03:16:40;;;;;;;26.15;12.60;;;;;;;4.47;77.53;98891.38;5140737;27;20259;-79
2023/03/06 03:19:06;;;;;;;21.45;11.15;;;;;;;4.58;78.43;98892.31;5139424;27;20023;-79
2023/03/06 03:21:31;;;;;;;23.10;14.70;;;;;;;4.56;78.35;98894.47;5140079;27;20023;-78
2023/03/06 03:23:56;;;;;;;28.02;14.27;;;;;;;4.66;78.06;98891.09;5140755;27;20034;-79
2023/03/06 03:26:21;;;;;;;27.70;13.67;;;;;;;4.43;78.07;98880.22;5140023;27;20050;-79
2023/03/06 03:28:47;;;;;;;25.27;13.48;;;;;;;4.46;77.81;98873.53;5139716;27;20262;-79
2023/03/06 03:31:13;;;;;;;25.95;14.68;;;;;;;4.50;78.56;98884.63;5140272;27;20490;-79
2023/03/06 03:33:39;;;;;;;24.83;14.98;;;;;;;4.55;77.97;98877.47;5139609;27;20071;-79
2023/03/06 03:36:06;;;;;;;27.23;15.27;;;;;;;4.70;77.93;98881.44;5137523;27;20126;-79
2023/03/06 03:38:31;;;;;;;27.55;16.67;;;;;;;4.45;78.17;98877.31;5139586;27;20031;-79
2023/03/06 03:40:56;;;;;;;29.05;15.82;;;;;;;4.61;78.04;98869.44;5139048;27;20033;-79
2023/03/06 03:43:22;;;;;;;27.52;17.05;;;;;;;4.67;77.71;98874.66;5139940;27;20037;-79
2023/03/06 03:45:47;;;;;;;31.83;15.97;;;;;;;4.51;77.60;98868.22;5139357;27;20031;-79
2023/03/06 03:48:12;;;;;;;24.70;13.43;;;;;;;4.43;78.33;98865.94;5138392;27;20315;-79
2023/03/06 03:50:38;;;;;;;25.02;15.85;;;;;;;4.41;78.56;98865.34;5139102;27;20078;-79
2023/03/06 03:53:03;;;;;;;25.48;14.63;;;;;;;4.49;78.57;98867.66;5139150;27;20058;-79
2023/03/06 03:55:29;;;;;;;29.73;17.95;;;;;;;4.69;78.26;98860.09;5140020;27;20034;-78
2023/03/06 03:57:54;;;;;;;30.70;17.05;;;;;;;4.15;79.37;98863.03;5139449;27;20307;-78
2023/03/06 04:00:20;;;;;;;28.00;15.93;;;;;;;4.19;79.13;98858.78;5139498;27;20369;-79
2023/03/06 04:02:45;;;;;;;26.77;15.07;;;;;;;4.20;79.36;98859.63;5137361;27;20035;-78
2023/03/06 04:05:13;;;;;;;26.60;13.88;;;;;;;4.43;78.47;98850.53;5137578;27;20129;-79
2023/03/06 04:07:39;;;;;;;31.45;16.73;;;;;;;4.47;78.63;98853.56;5138942;27;20031;-79
2023/03/06 04:10:06;;;;;;;29.73;17.20;;;;;;;4.61;77.42;98858.63;5139300;27;20052;-79
2023/03/06 04:12:31;;;;;;;37.08;18.27;;;;;;;4.30;78.92;98858.97;5139693;27;20041;-79
2023/03/06 04:14:57;;;;;;;31.13;17.08;;;;;;;4.06;78.85;98861.81;5138043;27;20023;-78
2023/03/06 04:17:22;;;;;;;31.08;15.70;;;;;;;4.03;79.34;98865.00;5138695;27;20094;-79
2023/03/06 04:19:47;;;;;;;25.35;14.23;;;;;;;4.31;78.45;98849.81;5138591;27;20428;-79
2023/03/06 04:22:12;;;;;;;22.60;13.20;;;;;;;3.93;79.06;98854.84;5138766;27;20086;-79
2023/03/06 04:24:38;;;;;;;23.45;12.82;;;;;;;3.98;79.16;98846.84;5139188;27;20038;-79
2023/03/06 04:27:03;;;;;;;22.43;12.93;;;;;;;4.11;79.06;98858.41;5139738;27;20233;-79
2023/03/06 04:29:28;;;;;;;23.02;12.93;;;;;;;4.24;78.53;98841.88;5139303;27;20347;-79
2023/03/06 04:31:54;;;;;;;22.88;11.85;;;;;;;4.19;77.40;98841.81;5137993;27;20118;-79
2023/03/06 04:34:19;;;;;;;21.47;10.60;;;;;;;3.76;78.23;98844.88;5137645;27;20039;-78
2023/03/06 04:36:44;;;;;;;14.10;8.23;;;;;;;4.01;78.14;98834.78;5139011;27;20290;-78
2023/03/06 04:39:13;;;;;;;15.37;9.67;;;;;;;4.20;78.02;98830.75;5139822;27;20263;-79
2023/03/06 04:41:39;;;;;;;18.30;9.65;;;;;;;4.14;76.92;98822.81;5137681;27;20287;-79
2023/03/06 04:44:05;;;;;;;15.55;9.63;;;;;;;4.39;77.22;98829.69;5139156;27;20035;-78
2023/03/06 04:46:30;;;;;;;13.23;8.40;;;;;;;4.28;76.90;98816.03;5138957;27;20034;-78
2023/03/06 04:48:56;;;;;;;19.97;11.00;;;;;;;4.25;77.16;98813.81;5137804;27;20030;-77
2023/03/06 04:51:22;;;;;;;15.77;10.30;;;;;;;4.26;77.24;98807.38;5139261;27;20620;-79
2023/03/06 04:53:48;;;;;;;16.38;8.68;;;;;;;4.38;76.29;98809.97;5138630;27;20432;-79
2023/03/06 04:56:13;;;;;;;15.77;9.00;;;;;;;4.52;76.01;98813.16;5139118;27;20027;-78
2023/03/06 04:58:38;;;;;;;21.73;10.33;;;;;;;4.43;75.84;98803.84;5138528;27;20281;-79
2023/03/06 05:01:04;;;;;;;18.90;8.97;;;;;;;4.34;76.10;98795.34;5138287;27;20327;-79
2023/03/06 05:03:29;;;;;;;24.17;9.07;;;;;;;3.98;76.46;98819.88;5138524;27;20239;-79
2023/03/06 05:05:54;;;;;;;20.27;9.52;;;;;;;4.16;76.77;98805.34;5138673;27;20019;-79
2023/03/06 05:08:20;;;;;;;19.15;11.50;;;;;;;4.06;75.68;98815.97;5138500;27;20515;-79
2023/03/06 05:10:45;;;;;;;19.10;11.48;;;;;;;4.02;76.54;98804.03;5138478;27;20063;-78
2023/03/06 05:13:11;;;;;;;22.10;11.77;;;;;;;4.18;76.79;98805.09;5138779;27;20034;-80
2023/03/06 05:15:39;;;;;;;19.40;12.05;;;;;;;4.26;77.27;98810.06;5137601;27;20030;-79
2023/03/06 05:18:04;;;;;;;15.90;11.05;;;;;;;4.30;75.95;98807.69;5137881;27;20120;-78
2023/03/06 05:20:29;;;;;;;17.65;10.38;;;;;;;4.03;76.96;98805.63;5138036;27;20048;-79
2023/03/06 05:22:55;;;;;;;20.27;10.63;;;;;;;4.28;76.84;98805.25;5142306;27;20092;-80
2023/03/06 05:25:20;;;;;;;23.25;11.10;;;;;;;4.16;76.86;98805.34;5142693;27;20251;-80
2023/03/06 05:27:45;;;;;;;19.20;10.60;;;;;;;4.19;76.35;98801.34;5141895;27;20082;-79
2023/03/06 05:30:13;;;;;;;17.48;10.45;;;;;;;4.28;75.90;98802.56;5141975;27;20054;-80
2023/03/06 05:32:38;;;;;;;21.42;12.57;;;;;;;4.36;76.36;98813.97;5141574;27;20034;-80
2023/03/06 05:35:05;;;;;;;21.25;12.68;;;;;;;4.45;75.42;98807.13;5142800;27;20552;-79
2023/03/06 05:37:30;;;;;;;26.80;14.32;;;;;;;4.18;76.17;98800.50;5140872;27;20084;-79
2023/03/06 05:39:55;;;;;;;28.13;13.98;;;;;;;4.30;76.46;98803.13;5142426;27;20300;-80
2023/03/06 05:42:21;;;;;;;28.48;15.73;;;;;;;4.39;75.46;98803.53;5142167;27;20540;-80
2023/03/06 05:44:46;;;;;;;26.25;16.67;;;;;;;4.50;75.77;98809.06;5141449;27;20023;-79
2023/03/06 05:47:12;;;;;;;33.72;16.35;;;;;;;4.26;76.33;98807.38;5141909;27;20027;-80
2023/03/06 05:49:37;;;;;;;27.80;16.38;;;;;;;4.29;76.13;98804.16;5140665;27;20108;-79
2023/03/06 05:52:04;;;;;;;27.58;15.90;;;;;;;4.40;76.02;98804.31;5141426;27;20029;-79
2023/03/06 05:54:30;;;;;;;21.55;12.00;;;;;;;4.37;75.86;98802.13;5141645;27;20510;-79
2023/03/06 05:56:58;;;;;;;22.67;14.07;;;;;;;4.44;75.77;98797.38;5141487;27;20577;-79
2023/03/06 05:59:27;;;;;;;33.17;15.73;;;;;;;4.22;76.21;98798.13;5141286;27;20027;-79
2023/03/06 06:01:56;;;;;;;24.63;12.15;;;;;;;4.30;76.04;98781.53;5142027;27;20110;-79
2023/03/06 06:04:23;;;;;;;24.33;15.23;;;;;;;4.45;75.54;98788.22;5140766;27;20087;-80
2023/03/06 06:06:53;;;;;;;21.23;13.07;;;;;;;4.44;75.66;98786.56;5141255;27;20046;-80
2023/03/06 06:09:19;;;;;;;24.60;15.15;;;;;;;4.46;75.61;98797.94;5140661;27;20038;-79
2023/03/06 06:11:45;;;;;;;26.90;13.88;;;;;;;4.51;75.72;98795.31;5140374;27;20027;-79
2023/03/06 06:14:10;;;;;;;24.30;14.93;;;;;;;4.36;75.09;98789.69;5141638;27;20038;-79
2023/03/06 06:16:35;;;;;;;26.17;14.77;;;;;;;4.39;75.76;98791.91;5141248;27;20119;-80
2023/03/06 06:19:01;;;;;;;26.92;15.00;;;;;;;4.20;75.54;98795.69;5139839;27;20031;-80
2023/03/06 06:21:26;;;;;;;22.85;14.18;;;;;;;4.24;75.50;98793.31;5141520;27;20722;-79
2023/03/06 06:23:51;;;;;;;23.63;12.13;;;;;;;4.12;75.89;98784.47;5141553;27;20435;-80
2023/03/06 06:26:16;;;;;;;17.57;10.37;;;;;;;4.12;75.61;98789.88;5140547;27;20030;-80
2023/03/06 06:28:42;;;;;;;19.20;10.53;;;;;;;4.16;75.82;98783.75;5141822;27;20326;-79
2023/03/06 06:31:11;;;;;;;24.70;13.03;;;;;;;4.30;75.94;98792.31;5140387;27;20619;-80
2023/03/06 06:33:37;;;;;;;21.23;13.80;;;;;;;4.42;75.92;98786.00;5139312;27;20307;-80
2023/03/06 06:36:03;;;;;;;20.02;13.18;;;;;;;4.44;75.23;98789.28;5138596;27;20031;-80
2023/03/06 06:38:28;;;;;;;20.38;12.82;;;;;;;4.50;75.02;98793.69;5139052;27;20034;-79
2023/03/06 06:40:53;;;;;;;27.03;15.63;;;;;;;4.54;74.59;98784.03;5140026;27;20059;-79
2023/03/06 06:43:19;;;;;;;24.87;15.90;;;;;;;4.51;74.92;98784.53;5140346;27;20258;-80
2023/03/06 06:45:44;;;;;;;37.87;16.00;;;;;;;4.61;75.12;98772.22;5140490;27;20255;-79
2023/03/06 06:48:10;;;;;;;31.35;17.65;;;;;;;4.65;74.61;98781.47;5138591;27;20262;-79
2023/03/06 06:50:35;;;;;;;25.05;17.48;;;;;;;4.62;74.64;98784.66;5137441;27;20027;-80
2023/03/06 06:53:00;;;;;;;26.30;17.25;;;;;;;4.61;74.93;98781.16;5136075;27;20041;-79
2023/03/06 06:55:26;;;;;;;26.52;16.20;;;;;;;4.56;74.75;98781.06;5138662;27;20030;-79
2023/03/06 06:57:51;;;;;;;31.60;17.67;;;;;;;4.34;75.83;98776.44;5135623;27;20038;-79
2023/03/06 07:00:17;;;;;;;29.63;15.40;;;;;;;4.47;75.07;98782.56;5139585;27;20379;-79
2023/03/06 07:02:48;;;;;;;29.00;15.95;;;;;;;4.50;75.64;98777.47;5139564;27;20044;-79
2023/03/06 07:05:14;;;;;;;25.35;14.82;;;;;;;4.37;75.33;98780.53;5138800;27;20023;-79
2023/03/06 07:07:40;;;;;;;28.10;14.02;;;;;;;4.51;75.42;98779.13;5136853;27;20032;-79
2023/03/06 07:10:11;;;;;;;31.92;17.27;;;;;;;4.31;75.90;98780.44;5141192;27;20027;-81
2023/03/06 07:12:36;;;;;;;28.40;15.73;;;;;;;4.15;76.99;98776.72;5140243;27;20114;-87
2023/03/06 07:15:03;;;;;;;27.50;16.40;;;;;;;4.46;76.80;98770.94;5140631;27;20064;-80
2023/03/06 07:17:28;;;;;;;21.92;12.95;;;;;;;4.55;75.80;98780.28;5140665;27;20119;-81
2023/03/06 07:19:54;;;;;;;29.55;16.42;;;;;;;4.64;75.28;98786.03;5138254;27;20625;-80
2023/03/06 07:22:19;;;;;;;24.03;14.77;;;;;;;4.59;75.14;98787.84;5139402;27;20072;-80
2023/03/06 07:24:44;;;;;;;30.10;15.70;;;;;;;4.51;75.51;98791.81;5140403;27;20742;-80
2023/03/06 07:27:15;;;;;;;26.73;14.77;;;;;;;4.36;75.59;98787.00;5139674;27;20256;-80
2023/03/06 07:29:43;;;;;;;24.10;12.25;;;;;;;4.34;75.79;98789.94;5139656;27;20266;-80
2023/03/06 07:32:09;;;;;;;25.65;13.52;;;;;;;4.44;75.56;98783.88;5139749;27;20031;-80
2023/03/06 07:34:34;;;;;;;24.05;13.45;;;;;;;4.67;75.10;98790.13;5139380;27;20030;-79
2023/03/06 07:37:00;;;;;;;24.37;12.50;;;;;;;4.61;74.46;98796.53;5141585;27;20531;-80
2023/03/06 07:39:26;;;;;;;26.27;13.30;;;;;;;4.65;74.75;98792.25;5138828;27;20259;-80
2023/03/06 07:41:52;;;;;;;23.25;12.60;;;;;;;4.39;73.85;98795.44;5140040;27;20274;-80
2023/03/06 07:44:17;;;;;;;27.58;14.98;;;;;;;4.39;75.18;98790.03;5139904;27;20026;-80
2023/03/06 07:46:43;;;;;;;30.30;16.20;;;;;;;4.26;74.99;98784.97;5140273;27;20114;-83
2023/03/06 07:49:08;;;;;;;29.35;16.13;;;;;;;4.41;74.82;98787.09;5137259;27;20113;-80
2023/03/06 07:51:33;;;;;;;26.50;13.77;;;;;;;4.28;75.28;98789.06;5138849;27;20491;-80
2023/03/06 07:53:58;;;;;;;27.58;15.20;;;;;;;3.97;76.27;98799.34;5139550;27;20031;-80
2023/03/06 07:56:24;;;;;;;33.43;18.10;;;;;;;4.30;75.99;98794.19;5140195;27;20134;-80
2023/03/06 07:58:49;;;;;;;34.17;19.52;;;;;;;4.30;75.73;98789.63;5139264;27;20708;-80
2023/03/06 08:01:18;;;;;;;31.25;17.23;;;;;;;4.53;75.11;98792.38;5139470;27;20019;-79
2023/03/06 08:03:43;;;;;;;31.75;18.95;;;;;;;4.49;75.28;98793.94;5138775;27;20019;-80
2023/03/06 08:06:14;;;;;;;26.23;15.82;;;;;;;4.39;75.56;98798.13;5137514;27;20035;-81
2023/03/06 08:08:41;;;;;;;26.35;14.65;;;;;;;4.29;75.51;98797.97;5136780;27;20156;-81
2023/03/06 08:11:08;;;;;;;31.55;18.00;;;;;;;4.19;74.79;98795.94;5139368;27;20114;-82
2023/03/06 08:13:34;;;;;;;27.15;16.58;;;;;;;4.04;76.17;98791.09;5138575;27;20494;-81
2023/03/06 08:16:00;;;;;;;28.58;16.35;;;;;;;4.45;75.53;98780.13;5139264;27;20034;-80
2023/03/06 08:18:26;;;;;;;29.20;14.27;;;;;;;4.25;75.45;98797.63;5138501;27;20061;-81
2023/03/06 08:21:13;;;;;;;27.25;16.00;;;;;;;4.63;75.21;98787.13;5138847;27;20019;-81
2023/03/06 08:23:39;;;;;;;35.13;13.80;;;;;;;4.51;74.39;98784.53;5139519;27;20062;-81
2023/03/06 08:26:09;;;;;;;24.58;13.57;;;;;;;4.53;73.73;98781.56;5138436;27;20037;-81
2023/03/06 08:28:34;;;;;;;26.60;16.17;;;;;;;4.36;74.58;98787.00;5137295;27;20475;-80
2023/03/06 08:31:11;;;;;;;21.67;13.05;;;;;;;4.42;74.37;98778.72;5138954;27;20044;-82
2023/03/06 08:33:37;;;;;;;22.98;11.18;;;;;;;4.57;74.92;98793.50;5139095;27;20084;-81
2023/03/06 08:36:03;;;;;;;21.10;11.75;;;;;;;4.56;73.89;98786.47;5138380;27;20054;-81
2023/03/06 08:38:28;;;;;;;28.13;12.60;;;;;;;4.37;74.70;98792.16;5134138;27;20059;-80
2023/03/06 08:40:53;;;;;;;19.85;11.98;;;;;;;4.49;75.01;98786.66;5139331;27;20031;-81
2023/03/06 08:43:18;;;;;;;22.17;11.68;;;;;;;4.46;75.07;98783.63;5139108;27;20084;-81
2023/03/06 08:45:44;;;;;;;27.25;12.20;;;;;;;4.18;76.28;98786.19;5139501;27;20385;-80
2023/03/06 08:48:09;;;;;;;20.07;11.23;;;;;;;4.43;75.21;98777.66;5139608;27;20082;-81
2023/03/06 08:50:34;;;;;;;20.23;10.67;;;;;;;4.52;74.95;98785.31;5139835;27;20720;-82
2023/03/06 08:52:59;;;;;;;24.53;12.77;;;;;;;4.58;74.75;98781.63;5140268;27;20254;-81
2023/03/06 08:55:28;;;;;;;20.33;10.60;;;;;;;4.80;74.37;98780.84;5138947;27;20274;-82
2023/03/06 08:57:53;;;;;;;16.77;10.00;;;;;;;4.62;73.68;98779.25;5142620;27;20608;-80
2023/03/06 09:00:18;;;;;;;23.40;10.23;;;;;;;4.89;74.63;98779.34;5143931;27;20042;-80
2023/03/06 09:02:44;;;;;;;17.80;8.65;;;;;;;5.09;73.55;98785.22;5143878;27;20023;-80
2023/03/06 09:05:09;;;;;;;20.60;8.97;;;;;;;5.06;73.38;98777.66;5143514;27;20311;-80
2023/03/06 09:07:35;;;;;;;21.30;10.57;;;;;;;4.99;72.92;98784.06;5141333;27;20315;-81
2023/03/06 09:10:00;;;;;;;19.33;9.40;;;;;;;4.86;73.55;98784.44;5141263;27;20019;-80
2023/03/06 09:12:26;;;;;;;19.38;10.40;;;;;;;5.08;72.91;98783.63;5141578;27;20055;-78
2023/03/06 09:14:52;;;;;;;30.17;10.18;;;;;;;5.16;72.45;98787.75;5142378;27;20030;-81
2023/03/06 09:17:17;;;;;;;19.80;10.77;;;;;;;5.06;72.90;98785.75;5144829;27;20114;-80
2023/03/06 09:19:42;;;;;;;19.08;11.02;;;;;;;4.28;75.83;98794.44;5142563;27;20140;-79
2023/03/06 09:22:08;;;;;;;18.17;9.77;;;;;;;4.63;76.11;98778.19;5141209;27;20058;-81
2023/03/06 09:24:33;;;;;;;23.90;11.93;;;;;;;4.78;75.72;98789.19;5135475;27;20395;-81
2023/03/06 09:26:58;;;;;;;24.77;12.95;;;;;;;4.90;76.09;98791.78;5139160;27;20027;-80
2023/03/06 09:29:23;;;;;;;19.57;11.20;;;;;;;4.71;75.90;98785.88;5143535;27;20047;-81
2023/03/06 09:31:49;;;;;;;21.53;12.80;;;;;;;4.85;76.73;98789.00;5141505;27;20247;-77
2023/03/06 09:34:14;;;;;;;23.33;12.52;;;;;;;4.84;76.29;98792.78;5143654;27;20585;-80
2023/03/06 09:36:40;;;;;;;23.70;11.90;;;;;;;4.41;78.50;98795.19;5143335;27;20773;-81
2023/03/06 09:39:06;;;;;;;20.83;11.73;;;;;;;4.71;78.30;98787.75;5143289;27;20037;-80
2023/03/06 09:41:34;;;;;;;28.95;13.65;;;;;;;4.90;77.63;98782.88;5143003;27;20023;-80
2023/03/06 09:44:39;;;;;;;27.75;13.82;;;;;;;5.10;77.28;98782.31;5138030;27;20050;-80
2023/03/06 09:47:17;;;;;;;26.13;12.55;;;;;;;4.86;77.43;98789.84;5144137;27;20427;-81
2023/03/06 09:50:04;;;;;;;25.50;13.43;;;;;;;4.86;78.02;98790.63;5142142;27;20047;-81
2023/03/06 09:52:35;;;;;;;26.30;13.50;;;;;;;4.54;78.59;98781.31;5140597;27;20034;-81
2023/03/06 09:55:13;;;;;;;28.35;16.92;;;;;;;4.76;78.45;98796.72;5142320;27;20464;-80
2023/03/06 09:58:03;;;;;;;27.73;15.55;;;;;;;4.69;78.53;98790.69;5142971;27;20051;-80
2023/03/06 10:01:09;;;;;;;31.27;14.20;;;;;;;4.82;77.52;98789.50;5143029;27;20034;-80
2023/03/06 10:03:53;;;;;;;24.40;13.35;;;;;;;4.82;77.43;98796.81;5141385;27;20130;-79
2023/03/06 10:06:48;;;;;;;30.95;17.38;;;;;;;4.86;77.73;98793.34;5141886;27;20042;-79
2023/03/06 10:09:25;;;;;;;27.38;15.13;;;;;;;4.57;77.74;98795.38;5139707;27;20381;-80
2023/03/06 10:11:56;;;;;;;26.30;15.20;;;;;;;4.47;78.50;98791.50;5143473;27;20031;-80
2023/03/06 10:14:31;;;;;;;31.00;16.40;;;;;;;4.65;78.10;98797.66;5144467;27;20055;-79
2023/03/06 10:16:57;;;;;;;26.42;15.23;;;;;;;4.31;78.78;98793.94;5143056;27;20454;-80
2023/03/06 10:19:31;;;;;;;29.10;15.30;;;;;;;4.28;78.70;98796.31;5142941;27;20063;-81
2023/03/06 10:22:13;;;;;;;30.38;17.83;;;;;;;4.24;79.55;98789.78;5141798;27;20029;-81
2023/03/06 10:24:46;;;;;;;34.80;19.30;;;;;;;4.37;79.17;98794.03;5144325;27;20027;-80
2023/03/06 10:27:27;;;;;;;25.20;15.68;;;;;;;4.72;79.48;98790.19;5140360;27;20031;-80
2023/03/06 10:30:13;;;;;;;32.83;16.20;;;;;;;4.70;78.20;98789.63;5142519;27;20403;-80
2023/03/06 10:32:57;;;;;;;27.77;14.38;;;;;;;4.60;78.49;98798.41;5139852;27;20026;-80
2023/03/06 10:35:48;;;;;;;34.70;21.07;;;;;;;4.61;78.62;98793.81;5139154;27;20129;-80
2023/03/06 10:38:36;;;;;;;24.50;16.02;;;;;;;4.63;77.57;98803.31;5136326;27;20759;-82
2023/03/06 10:41:01;;;;;;;23.45;15.50;;;;;;;4.53;77.63;98801.31;5140834;27;20019;-82
2023/03/06 10:43:27;;;;;;;33.67;16.30;;;;;;;4.73;77.41;98802.63;5140888;27;20035;-81
2023/03/06 10:45:52;;;;;;;32.58;19.00;;;;;;;4.73;77.02;98799.94;5135435;27;20051;-81
2023/03/06 10:48:22;;;;;;;32.65;17.30;;;;;;;5.05;77.41;98794.91;5139142;27;20093;-81
2023/03/06 10:50:47;;;;;;;30.50;15.57;;;;;;;4.85;76.93;98799.00;5141563;27;20046;-81
2023/03/06 10:53:22;;;;;;;34.17;17.67;;;;;;;4.90;77.59;98796.38;5143111;27;20084;-80
2023/03/06 10:55:54;;;;;;;36.22;20.15;;;;;;;5.18;77.31;98796.41;5139362;27;20038;-79
2023/03/06 10:58:30;;;;;;;29.08;15.68;;;;;;;5.27;75.94;98799.50;5135852;27;20147;-78
2023/03/06 11:00:59;;;;;;;31.75;17.60;;;;;;;4.85;76.64;98796.28;5141464;27;20046;-79
2023/03/06 11:03:24;;;;;;;29.75;16.02;;;;;;;4.99;77.25;98800.25;5141457;27;20110;-79
2023/03/06 11:05:56;;;;;;;31.83;18.88;;;;;;;5.50;75.78;98792.97;5141714;27;20528;-80
2023/03/06 11:08:22;;;;;;;26.02;16.17;;;;;;;5.67;74.72;98790.19;5142017;27;20031;-79
2023/03/06 11:10:56;;;;;;;23.63;14.05;;;;;;;5.67;74.67;98792.88;5139790;27;20030;-80
2023/03/06 11:13:22;;;;;;;;;;;;;;;5.79;75.19;98800.84;5142600;27;20491;-81
2023/03/06 11:15:56;;;;;;;28.15;15.75;;;;;;;5.67;74.53;98782.06;5141725;27;19938;-80
2023/03/06 11:18:33;;;;;;;26.40;15.38;;;;;;;5.68;73.85;98794.50;5140520;27;20038;-81
2023/03/06 11:20:59;;;;;;;22.15;12.88;;;;;;;5.64;73.20;98793.38;5137770;27;20472;-80
2023/03/06 11:23:37;;;;;;;24.95;13.25;;;;;;;5.13;74.14;98807.97;5141416;27;20027;-81
2023/03/06 11:26:16;;;;;;;25.40;14.13;;;;;;;5.23;75.29;98796.47;5139398;27;20031;-81
2023/03/06 11:29:00;;;;;;;28.25;15.20;;;;;;;5.52;73.79;98796.25;5139262;27;20062;-80